Time;durP1;ratioP1;P1;durP2;ratioP2;P2;SDS_P1;SDS_P2;PMS_P1;PMS_P2;Temp;Humidity;BMP_temperature;BMP_pressure;BME280_temperature;BME280_humidity;BME280_pressure;Samples;Min_cycle;Max_cycle;Signal;HPM_P1;HPM_P2
2023/10/19 00:00:44;;;;;;;11.75;10.40;;;;;;;12.22;100.00;99212.88;4997741;28;20038;-48
2023/10/19 00:03:11;;;;;;;10.20;9.20;;;;;;;12.25;100.00;99215.22;4999030;28;20026;-49
2023/10/19 00:05:37;;;;;;;10.68;9.25;;;;;;;12.28;100.00;99204.22;4995200;28;20031;-48
2023/10/19 00:08:19;;;;;;;11.55;9.38;;;;;;;12.31;100.00;99221.72;4999692;28;20084;-48
2023/10/19 00:10:49;;;;;;;11.65;9.15;;;;;;;12.34;100.00;99211.56;4997881;28;20041;-50
2023/10/19 00:13:16;;;;;;;11.50;9.32;;;;;;;12.36;100.00;99209.53;4999639;28;20018;-49
2023/10/19 00:15:51;;;;;;;11.43;10.15;;;;;;;12.42;100.00;99212.53;4999145;28;20034;-48
2023/10/19 00:20:51;;;;;;;14.20;9.32;;;;;;;12.43;100.00;99206.22;5000468;28;20417;-48
2023/10/19 00:23:24;;;;;;;9.98;8.55;;;;;;;12.44;100.00;99208.72;4996757;28;20389;-49
2023/10/19 00:25:53;;;;;;;11.50;9.48;;;;;;;12.43;100.00;99193.72;4996674;28;20034;-47
2023/10/19 00:28:19;;;;;;;9.90;8.88;;;;;;;12.46;100.00;99197.88;4997225;28;20068;-48
2023/10/19 00:30:45;;;;;;;11.93;8.95;;;;;;;12.50;100.00;99193.88;4998961;28;20046;-48
2023/10/19 00:33:21;;;;;;;11.35;8.85;;;;;;;12.56;100.00;99201.19;4993626;28;20062;-49
2023/10/19 00:35:57;;;;;;;9.98;8.98;;;;;;;12.60;100.00;99197.16;4997901;28;20152;-48
2023/10/19 00:41:21;;;;;;;14.02;9.27;;;;;;;12.66;100.00;99201.00;4997017;28;20058;-48
2023/10/19 00:43:44;;;;;;;10.93;8.88;;;;;;;12.65;100.00;99188.66;5011837;28;20038;-48
2023/10/19 00:48:55;;;;;;;10.90;8.20;;;;;;;12.70;100.00;99191.66;5004442;28;20045;-48
2023/10/19 00:51:27;;;;;;;10.23;7.93;;;;;;;12.73;100.00;99196.63;4996715;28;20534;-49
2023/10/19 00:53:58;;;;;;;8.95;7.70;;;;;;;12.75;100.00;99190.13;4994082;28;20037;-47
2023/10/19 00:56:27;;;;;;;9.38;7.93;;;;;;;12.80;100.00;99188.78;5000095;28;20022;-48
2023/10/19 00:58:56;;;;;;;9.88;7.75;;;;;;;12.87;100.00;99185.28;4996987;28;20495;-48
2023/10/19 01:01:28;;;;;;;11.55;8.40;;;;;;;12.91;100.00;99186.56;4998643;28;20463;-49
2023/10/19 01:03:56;;;;;;;10.75;8.05;;;;;;;12.93;100.00;99184.56;4998412;28;20486;-48
2023/10/19 01:06:25;;;;;;;9.52;7.70;;;;;;;12.92;100.00;99185.56;4996226;28;20033;-48
2023/10/19 01:08:51;;;;;;;9.77;7.32;;;;;;;12.95;100.00;99190.53;4995917;28;20023;-48
2023/10/19 01:11:20;;;;;;;11.40;7.55;;;;;;;12.96;100.00;99183.38;4998140;28;20609;-48
2023/10/19 01:13:46;;;;;;;;;;;;;;;13.14;100.00;99191.97;4997485;28;20370;-48
2023/10/19 01:16:20;;;;;;;6.90;6.18;;;;;;;13.01;100.00;99193.53;4997945;28;20363;-49
2023/10/19 01:18:46;;;;;;;10.43;6.80;;;;;;;13.04;100.00;99187.81;4996807;28;20041;-48
2023/10/19 01:21:11;;;;;;;8.10;6.25;;;;;;;13.07;100.00;99183.00;5000787;28;20443;-49
2023/10/19 01:23:39;;;;;;;8.52;6.35;;;;;;;13.09;100.00;99183.66;5001784;28;20495;-48
2023/10/19 01:26:10;;;;;;;6.63;5.43;;;;;;;13.14;100.00;99188.47;4997004;28;20029;-48
2023/10/19 01:31:16;;;;;;;6.72;5.05;;;;;;;13.20;100.00;99174.41;4997727;28;20068;-46
2023/10/19 01:33:42;;;;;;;7.05;5.18;;;;;;;13.17;100.00;99181.94;4999773;28;20030;-47
2023/10/19 01:36:14;;;;;;;6.93;5.45;;;;;;;13.15;100.00;99182.13;4997007;28;20031;-47
2023/10/19 01:38:41;;;;;;;7.15;5.55;;;;;;;13.10;100.00;99174.63;4997787;28;20023;-46
2023/10/19 01:41:13;;;;;;;8.68;5.13;;;;;;;13.08;100.00;99176.66;4996577;28;20026;-46
2023/10/19 01:43:49;;;;;;;7.10;5.07;;;;;;;13.05;100.00;99179.66;4995925;28;20040;-46
2023/10/19 01:46:29;;;;;;;8.13;5.25;;;;;;;13.05;100.00;99181.50;4991662;28;20047;-47
2023/10/19 01:48:55;;;;;;;11.15;5.30;;;;;;;13.05;100.00;99177.00;4993760;28;20477;-46
2023/10/19 01:51:22;;;;;;;9.20;4.75;;;;;;;13.04;100.00;99180.69;4999390;28;20038;-46
2023/10/19 01:53:48;;;;;;;6.55;4.63;;;;;;;13.05;100.00;99174.34;4996013;28;20121;-46
2023/10/19 01:56:16;;;;;;;6.82;4.47;;;;;;;13.08;100.00;99175.84;4996754;28;20105;-47
2023/10/19 01:58:43;;;;;;;9.43;4.30;;;;;;;13.09;100.00;99175.66;4993465;28;20058;-46
2023/10/19 02:03:41;;;;;;;6.43;3.50;;;;;;;13.16;100.00;99178.44;4998130;28;20042;-46
2023/10/19 02:06:16;;;;;;;4.70;3.22;;;;;;;13.19;100.00;99172.78;5001122;28;20034;-46
2023/10/19 02:09:00;;;;;;;7.88;3.00;;;;;;;13.22;100.00;99182.25;5001930;28;20039;-46
2023/10/19 02:11:26;;;;;;;5.10;2.75;;;;;;;13.27;100.00;99182.53;4999929;28;20115;-46
2023/10/19 02:13:55;;;;;;;7.68;2.70;;;;;;;13.30;100.00;99174.19;5002445;28;20453;-46
2023/10/19 02:16:31;;;;;;;4.38;2.08;;;;;;;13.32;100.00;99166.88;5001719;28;20037;-47
2023/10/19 02:18:56;;;;;;;7.20;2.30;;;;;;;13.37;100.00;99169.84;5000385;28;20044;-47
2023/10/19 02:21:22;;;;;;;3.50;2.13;;;;;;;13.40;100.00;99166.81;5004476;28;20388;-46
2023/10/19 02:23:51;;;;;;;6.50;2.30;;;;;;;13.42;100.00;99169.31;4995341;28;20034;-48
2023/10/19 02:26:22;;;;;;;5.32;2.10;;;;;;;13.42;100.00;99170.16;4998184;28;20068;-46
2023/10/19 02:28:50;;;;;;;2.78;1.60;;;;;;;13.45;100.00;99172.44;5000044;28;20117;-46
2023/10/19 02:31:19;;;;;;;6.10;1.85;;;;;;;13.48;100.00;99168.63;5011736;28;20037;-46
2023/10/19 02:34:00;;;;;;;;;;;;;;;13.56;100.00;99173.91;5000579;28;20031;-46
2023/10/19 02:36:30;;;;;;;4.55;1.60;;;;;;;13.50;100.00;99167.41;4997459;28;19924;-48
2023/10/19 02:39:00;;;;;;;3.22;1.45;;;;;;;13.50;100.00;99166.59;5000730;28;20020;-46
2023/10/19 02:41:27;;;;;;;6.25;1.63;;;;;;;13.51;100.00;99162.94;4995074;28;20430;-46
2023/10/19 02:44:02;;;;;;;4.22;1.45;;;;;;;13.53;100.00;99168.09;4999200;28;20496;-47
2023/10/19 02:46:34;;;;;;;5.50;1.50;;;;;;;13.52;100.00;99161.91;4999973;28;20412;-49
2023/10/19 02:49:04;;;;;;;2.63;1.33;;;;;;;13.54;100.00;99156.41;4999241;28;20033;-46
2023/10/19 02:51:32;;;;;;;6.75;1.58;;;;;;;13.55;100.00;99158.88;4996407;28;20504;-47
2023/10/19 02:54:02;;;;;;;6.05;1.55;;;;;;;13.56;100.00;99165.06;5016871;28;20044;-46
2023/10/19 02:56:29;;;;;;;5.30;1.55;;;;;;;13.58;100.00;99160.38;4997701;28;20033;-47
2023/10/19 02:59:01;;;;;;;5.47;2.00;;;;;;;13.58;100.00;99153.19;4998814;28;20030;-48
2023/10/19 03:01:31;;;;;;;5.78;1.80;;;;;;;13.59;100.00;99154.00;4999336;28;20041;-47
2023/10/19 03:04:02;;;;;;;5.10;1.50;;;;;;;13.59;100.00;99152.19;4999045;28;20094;-48
2023/10/19 03:06:32;;;;;;;3.83;1.60;;;;;;;13.61;100.00;99155.50;4998054;28;20039;-47
2023/10/19 03:09:01;;;;;;;5.43;1.73;;;;;;;13.63;100.00;99156.16;5000041;28;20492;-47
2023/10/19 03:11:30;;;;;;;3.33;1.60;;;;;;;13.63;100.00;99156.16;4996877;28;20051;-48
2023/10/19 03:13:57;;;;;;;2.58;1.63;;;;;;;13.66;100.00;99152.31;5001327;28;20041;-48
2023/10/19 03:16:23;;;;;;;3.65;1.50;;;;;;;13.66;100.00;99145.13;4997768;28;20507;-47
2023/10/19 03:18:49;;;;;;;5.63;1.90;;;;;;;13.65;100.00;99145.31;5006366;28;20036;-49
2023/10/19 03:21:16;;;;;;;5.63;1.40;;;;;;;13.65;100.00;99153.31;4995484;28;20110;-47
2023/10/19 03:23:42;;;;;;;5.68;1.83;;;;;;;13.63;100.00;99140.16;4999131;28;20467;-47
2023/10/19 03:28:54;;;;;;;3.90;1.80;;;;;;;13.65;100.00;99135.47;4996927;28;20137;-47
2023/10/19 03:31:27;;;;;;;8.45;1.98;;;;;;;13.66;100.00;99133.63;4999948;28;20442;-46
2023/10/19 03:33:56;;;;;;;8.48;1.80;;;;;;;13.66;100.00;99129.13;4998216;28;20030;-47
2023/10/19 03:36:23;;;;;;;4.25;1.60;;;;;;;13.66;100.00;99131.78;4998968;28;20037;-48
2023/10/19 03:38:51;;;;;;;6.60;1.83;;;;;;;13.65;100.00;99123.97;5001138;28;20117;-46
2023/10/19 03:41:21;;;;;;;5.50;1.70;;;;;;;13.65;100.00;99124.78;4997894;28;20121;-47
2023/10/19 03:43:51;;;;;;;5.38;1.80;;;;;;;13.66;100.00;99125.63;4995649;28;20044;-47
2023/10/19 03:46:30;;;;;;;3.85;1.60;;;;;;;13.66;100.00;99130.97;5007399;28;20103;-47
2023/10/19 03:49:03;;;;;;;5.75;1.67;;;;;;;13.65;100.00;99131.97;4999608;28;20030;-48
2023/10/19 03:51:39;;;;;;;4.95;1.70;;;;;;;13.64;100.00;99136.47;4997887;28;20495;-47
2023/10/19 03:54:09;;;;;;;4.07;1.73;;;;;;;13.64;100.00;99123.16;5001225;28;20031;-47
2023/10/19 03:56:37;;;;;;;3.85;1.70;;;;;;;13.66;100.00;99130.97;5000349;28;20054;-46
2023/10/19 03:59:04;;;;;;;5.23;1.67;;;;;;;13.65;100.00;99126.63;4995609;28;20542;-46
2023/10/19 04:01:31;;;;;;;3.40;1.70;;;;;;;13.63;100.00;99129.47;4997721;28;20323;-47
2023/10/19 04:03:57;;;;;;;4.40;1.50;;;;;;;13.62;100.00;99129.66;4999623;28;20030;-48
2023/10/19 04:06:22;;;;;;;5.05;1.98;;;;;;;13.60;100.00;99129.84;5001943;28;20028;-46
2023/10/19 04:08:50;;;;;;;4.05;1.58;;;;;;;13.59;100.00;99119.34;4999613;28;20531;-47
2023/10/19 04:11:23;;;;;;;4.95;1.73;;;;;;;13.61;100.00;99122.69;4996085;28;20036;-47
2023/10/19 04:13:55;;;;;;;5.13;1.70;;;;;;;13.59;100.00;99122.00;4999452;28;20154;-47
2023/10/19 04:16:21;;;;;;;4.10;1.50;;;;;;;13.59;100.00;99124.66;4996726;28;20513;-46
2023/10/19 04:18:47;;;;;;;3.35;1.55;;;;;;;13.59;100.00;99116.66;4997183;28;20101;-46
2023/10/19 04:21:13;;;;;;;4.55;1.90;;;;;;;13.60;100.00;99113.00;4997378;28;20389;-47
2023/10/19 04:23:38;;;;;;;6.15;1.48;;;;;;;13.58;100.00;99115.03;4996807;28;20018;-46
2023/10/19 04:26:10;;;;;;;6.13;1.55;;;;;;;13.58;100.00;99115.84;4995424;28;20088;-48
2023/10/19 04:28:49;;;;;;;4.45;1.50;;;;;;;13.57;100.00;99122.19;5010555;28;20529;-47
2023/10/19 04:31:16;;;;;;;9.70;1.60;;;;;;;13.58;100.00;99123.84;4998035;28;20048;-48
2023/10/19 04:33:49;;;;;;;3.60;1.70;;;;;;;13.58;100.00;99120.38;5012284;28;20027;-47
2023/10/19 04:36:15;;;;;;;6.10;1.30;;;;;;;13.59;100.00;99116.66;4997144;28;20034;-49
2023/10/19 04:38:41;;;;;;;3.55;1.27;;;;;;;13.58;100.00;99120.38;4996698;28;20121;-47
2023/10/19 04:41:07;;;;;;;4.75;1.48;;;;;;;13.55;100.00;99126.06;4997504;28;20117;-47
2023/10/19 04:43:35;;;;;;;6.25;1.52;;;;;;;13.54;100.00;99124.38;4999056;28;20030;-47
2023/10/19 04:46:07;;;;;;;7.28;1.50;;;;;;;13.55;100.00;99128.72;4996616;28;20451;-47
2023/10/19 04:48:32;;;;;;;5.20;1.38;;;;;;;13.52;100.00;99119.22;4998922;28;20033;-48
2023/10/19 04:50:58;;;;;;;7.00;1.50;;;;;;;13.56;100.00;99136.56;4999814;28;20249;-50
2023/10/19 04:53:23;;;;;;;9.07;1.90;;;;;;;13.59;100.00;99136.19;5001391;28;20112;-49
2023/10/19 04:55:48;;;;;;;3.97;1.58;;;;;;;13.62;100.00;99133.19;4998718;28;20280;-50
2023/10/19 04:58:14;;;;;;;6.70;1.40;;;;;;;13.65;100.00;99127.44;5000408;28;20575;-51
2023/10/19 05:00:39;;;;;;;7.35;1.58;;;;;;;13.69;100.00;99134.09;4997793;28;20022;-49
2023/10/19 05:03:06;;;;;;;4.40;1.47;;;;;;;13.72;100.00;99135.56;4996644;28;20041;-48
2023/10/19 05:05:31;;;;;;;7.78;1.30;;;;;;;13.71;100.00;99135.78;4997919;28;20375;-49
2023/10/19 05:07:56;;;;;;;4.10;1.60;;;;;;;13.71;100.00;99133.09;4997405;28;20077;-49
2023/10/19 05:10:22;;;;;;;5.43;1.60;;;;;;;13.71;100.00;99141.13;5000371;28;20030;-49
2023/10/19 05:12:47;;;;;;;7.47;1.52;;;;;;;13.68;100.00;99136.94;4997209;28;20026;-48
2023/10/19 05:15:12;;;;;;;8.65;1.40;;;;;;;13.63;100.00;99129.47;4993614;28;20060;-48
2023/10/19 05:17:38;;;;;;;4.93;1.60;;;;;;;13.61;100.00;99139.50;4996840;28;20533;-48
2023/10/19 05:20:05;;;;;;;5.45;1.77;;;;;;;13.58;100.00;99141.72;4994338;28;20277;-48
2023/10/19 05:22:32;;;;;;;6.10;1.60;;;;;;;13.55;100.00;99145.53;4995882;28;20548;-48
2023/10/19 05:24:57;;;;;;;7.18;1.77;;;;;;;13.51;100.00;99145.09;4994024;28;20476;-48
2023/10/19 05:27:23;;;;;;;6.18;1.77;;;;;;;13.48;100.00;99141.94;4995209;28;20030;-47
2023/10/19 05:29:48;;;;;;;5.47;1.90;;;;;;;13.46;100.00;99139.44;4998411;28;20029;-48
2023/10/19 05:32:14;;;;;;;5.53;1.63;;;;;;;13.43;100.00;99146.97;4996811;28;20520;-48
2023/10/19 05:34:39;;;;;;;7.65;1.80;;;;;;;13.40;100.00;99145.50;5021687;28;20042;-48
2023/10/19 05:37:05;;;;;;;5.77;1.77;;;;;;;13.37;100.00;99142.34;4998919;28;20050;-48
2023/10/19 05:39:33;;;;;;;5.82;1.80;;;;;;;13.36;100.00;99146.03;5002404;28;20275;-49
2023/10/19 05:42:01;;;;;;;5.55;1.98;;;;;;;13.35;100.00;99147.03;5005077;28;20523;-49
2023/10/19 05:44:28;;;;;;;11.38;1.88;;;;;;;13.32;100.00;99148.22;4997463;28;20133;-49
2023/10/19 05:46:55;;;;;;;5.35;2.20;;;;;;;13.32;100.00;99150.88;4999775;28;20137;-48
2023/10/19 05:49:20;;;;;;;6.78;2.20;;;;;;;13.29;100.00;99157.38;4999058;28;20137;-48
2023/10/19 05:51:46;;;;;;;4.95;1.70;;;;;;;13.31;100.00;99154.53;5002713;28;20041;-47
2023/10/19 05:54:12;;;;;;;10.25;2.25;;;;;;;13.28;100.00;99152.22;4997625;28;20445;-48
2023/10/19 05:56:37;;;;;;;5.93;2.00;;;;;;;13.24;100.00;99154.41;5000174;28;20035;-47
2023/10/19 05:59:04;;;;;;;6.28;1.95;;;;;;;13.22;100.00;99155.59;4999539;28;20041;-48
2023/10/19 06:01:29;;;;;;;8.30;2.00;;;;;;;13.18;100.00;99159.63;5000451;28;20030;-48
2023/10/19 06:03:56;;;;;;;8.10;2.17;;;;;;;13.14;100.00;99162.63;4997179;28;20049;-46
2023/10/19 06:06:21;;;;;;;5.22;2.15;;;;;;;13.10;100.00;99161.31;4995274;28;20531;-47
2023/10/19 06:08:46;;;;;;;6.65;2.00;;;;;;;13.09;100.00;99154.34;5003492;28;20022;-47
2023/10/19 06:11:12;;;;;;;9.77;2.33;;;;;;;13.07;100.00;99164.34;4993145;28;20035;-48
2023/10/19 06:13:37;;;;;;;5.57;2.13;;;;;;;13.04;100.00;99158.50;5013145;28;20467;-46
2023/10/19 06:16:03;;;;;;;6.97;2.88;;;;;;;13.02;100.00;99168.53;4997705;28;20041;-48
2023/10/19 06:18:29;;;;;;;8.48;2.25;;;;;;;13.00;100.00;99171.34;5002435;28;20486;-47
2023/10/19 06:20:55;;;;;;;8.68;2.05;;;;;;;13.00;100.00;99170.53;5003170;28;20434;-47
2023/10/19 06:23:20;;;;;;;5.50;2.22;;;;;;;12.99;100.00;99164.38;5000467;28;20037;-49
2023/10/19 06:25:46;;;;;;;9.10;2.60;;;;;;;12.99;100.00;99166.19;4999075;28;20026;-47
2023/10/19 06:28:12;;;;;;;8.93;2.38;;;;;;;12.99;100.00;99163.53;4997190;28;20073;-47
2023/10/19 06:30:37;;;;;;;9.35;2.40;;;;;;;13.00;100.00;99173.22;4997827;28;20438;-48
2023/10/19 06:33:03;;;;;;;8.05;2.42;;;;;;;12.96;100.00;99173.53;4995273;28;20030;-47
2023/10/19 06:35:31;;;;;;;7.45;1.90;;;;;;;12.94;100.00;99178.22;4996945;28;20030;-47
2023/10/19 06:37:57;;;;;;;9.80;2.27;;;;;;;12.97;100.00;99179.69;5000441;28;20369;-47
2023/10/19 06:40:23;;;;;;;6.68;2.20;;;;;;;12.95;100.00;99179.88;4991555;28;20308;-47
2023/10/19 06:42:49;;;;;;;9.63;2.45;;;;;;;12.94;100.00;99194.22;4997553;28;20054;-47
2023/10/19 06:45:16;;;;;;;9.27;2.38;;;;;;;12.93;100.00;99181.06;4996704;28;20042;-47
2023/10/19 06:47:42;;;;;;;9.05;2.40;;;;;;;12.93;100.00;99181.88;5001079;28;20030;-46
2023/10/19 06:50:10;;;;;;;7.45;2.45;;;;;;;12.93;100.00;99191.72;4996497;28;20026;-47
2023/10/19 06:52:35;;;;;;;9.77;2.47;;;;;;;12.93;100.00;99184.56;4996958;28;20035;-48
2023/10/19 06:55:03;;;;;;;8.85;2.15;;;;;;;12.96;100.00;99196.72;4999276;28;20021;-47
2023/10/19 06:57:28;;;;;;;5.70;2.15;;;;;;;12.95;100.00;99187.88;4999571;28;20034;-48
2023/10/19 06:59:53;;;;;;;9.43;2.55;;;;;;;12.98;100.00;99193.88;4994328;28;20033;-48
2023/10/19 07:02:20;;;;;;;12.20;2.50;;;;;;;13.00;100.00;99195.34;4999485;28;20084;-47
2023/10/19 07:04:47;;;;;;;9.50;2.38;;;;;;;13.01;100.00;99196.19;4998254;28;20368;-47
2023/10/19 07:07:13;;;;;;;10.70;2.28;;;;;;;13.03;100.00;99202.19;5001388;28;20122;-46
2023/10/19 07:09:39;;;;;;;10.23;2.38;;;;;;;13.05;100.00;99202.81;4995929;28;20038;-47
2023/10/19 07:12:04;;;;;;;13.93;3.08;;;;;;;13.07;100.00;99198.16;5014140;28;20079;-47
2023/10/19 07:14:32;;;;;;;10.80;2.38;;;;;;;13.09;100.00;99190.81;4997374;28;20041;-47
2023/10/19 07:16:57;;;;;;;7.75;2.20;;;;;;;13.10;100.00;99192.47;4994722;28;20038;-48
2023/10/19 07:19:23;;;;;;;13.10;2.50;;;;;;;13.13;100.00;99195.63;4996635;28;20396;-47
2023/10/19 07:21:49;;;;;;;10.60;2.63;;;;;;;13.15;100.00;99195.44;4994083;28;20027;-48
2023/10/19 07:24:18;;;;;;;12.45;2.67;;;;;;;13.18;100.00;99202.28;5010302;28;20036;-48
2023/10/19 07:26:53;;;;;;;;;;;;;;;13.21;100.00;99191.25;4996325;28;20101;-47
2023/10/19 07:29:19;;;;;;;12.90;2.70;;;;;;;13.22;100.00;99195.56;4998733;28;19917;-47
2023/10/19 07:31:44;;;;;;;11.00;2.60;;;;;;;13.23;100.00;99181.25;4997363;28;20017;-48
2023/10/19 07:34:12;;;;;;;9.07;3.20;;;;;;;13.26;100.00;99183.56;4994837;28;20030;-47
2023/10/19 07:36:38;;;;;;;10.35;3.25;;;;;;;13.28;100.00;99190.38;4995498;28;20469;-46
2023/10/19 07:39:03;;;;;;;13.05;3.25;;;;;;;13.30;100.00;99187.53;4994751;28;20084;-48
2023/10/19 07:41:34;;;;;;;9.07;2.92;;;;;;;13.30;100.00;99185.69;4992178;28;20026;-47
2023/10/19 07:43:59;;;;;;;18.77;3.70;;;;;;;13.33;100.00;99174.69;4997241;28;20026;-47
2023/10/19 07:46:25;;;;;;;8.90;2.80;;;;;;;13.36;100.00;99184.19;4996621;28;20645;-47
2023/10/19 07:48:52;;;;;;;11.60;3.20;;;;;;;13.38;100.00;99181.34;4996464;28;20411;-48
2023/10/19 07:51:18;;;;;;;16.27;3.28;;;;;;;13.41;100.00;99179.16;4995855;28;20030;-47
2023/10/19 07:53:44;;;;;;;12.20;3.05;;;;;;;13.42;100.00;99180.84;4997157;28;20489;-47
2023/10/19 07:56:09;;;;;;;9.68;2.33;;;;;;;13.46;100.00;99182.13;4996474;28;20065;-46
2023/10/19 07:58:34;;;;;;;12.15;2.83;;;;;;;13.48;100.00;99181.94;4992533;28;20041;-47
2023/10/19 08:01:01;;;;;;;12.75;2.53;;;;;;;13.50;100.00;99183.41;4997333;28;20037;-48
2023/10/19 08:03:26;;;;;;;11.88;3.15;;;;;;;13.53;100.00;99176.91;4996527;28;20057;-48
2023/10/19 08:05:52;;;;;;;12.05;2.75;;;;;;;13.57;100.00;99174.72;5000899;28;21188;-46
2023/10/19 08:08:17;;;;;;;9.88;2.70;;;;;;;13.59;100.00;99170.03;4991384;28;20388;-48
2023/10/19 08:10:42;;;;;;;14.57;3.22;;;;;;;13.61;100.00;99170.69;5011170;28;20096;-46
2023/10/19 08:13:08;;;;;;;10.13;2.58;;;;;;;13.63;100.00;99166.81;4993839;28;20058;-47
2023/10/19 08:15:33;;;;;;;10.38;2.50;;;;;;;13.66;100.00;99169.13;4997746;28;20036;-46
2023/10/19 08:17:59;;;;;;;10.45;3.28;;;;;;;13.71;100.00;99151.78;4998300;28;20061;-46
2023/10/19 08:20:24;;;;;;;13.10;3.25;;;;;;;13.75;100.00;99158.41;4996770;28;20384;-47
2023/10/19 08:23:01;;;;;;;10.77;2.70;;;;;;;13.81;100.00;99155.84;4993191;28;20032;-47
2023/10/19 08:25:29;;;;;;;8.57;2.67;;;;;;;13.86;100.00;99161.47;5001991;28;20041;-47
2023/10/19 08:27:57;;;;;;;7.70;2.87;;;;;;;13.91;100.00;99154.78;4993291;28;20102;-46
2023/10/19 08:30:23;;;;;;;14.38;2.67;;;;;;;13.97;100.00;99164.72;4996537;28;20354;-47
2023/10/19 08:32:51;;;;;;;10.15;2.30;;;;;;;14.00;100.00;99154.50;4995642;28;20403;-47
2023/10/19 08:35:24;;;;;;;10.13;2.50;;;;;;;14.06;100.00;99155.63;4995114;28;20022;-47
2023/10/19 08:37:49;;;;;;;13.88;2.60;;;;;;;14.09;100.00;99155.28;4996222;28;20190;-48
2023/10/19 08:40:15;;;;;;;11.20;2.20;;;;;;;14.13;100.00;99156.56;4998227;28;20161;-48
2023/10/19 08:42:42;;;;;;;11.75;2.55;;;;;;;14.18;100.00;99154.16;4993653;28;20023;-47
2023/10/19 08:45:08;;;;;;;14.98;2.70;;;;;;;14.26;100.00;99153.25;4999199;28;20128;-47
2023/10/19 08:47:36;;;;;;;11.63;2.60;;;;;;;14.35;100.00;99151.31;5003853;28;20399;-47
2023/10/19 08:50:03;;;;;;;11.68;3.05;;;;;;;14.43;100.00;99154.72;4996493;28;20029;-47
2023/10/19 08:52:29;;;;;;;12.95;2.58;;;;;;;14.53;100.00;99150.97;4996242;28;20035;-47
2023/10/19 08:54:54;;;;;;;13.07;2.78;;;;;;;14.60;100.00;99150.09;4997461;28;20079;-47
2023/10/19 08:57:20;;;;;;;9.63;2.60;;;;;;;14.71;100.00;99159.44;4972829;28;20179;-47
2023/10/19 08:59:46;;;;;;;9.90;2.50;;;;;;;14.82;100.00;99160.81;4993470;28;20022;-47
2023/10/19 09:02:12;;;;;;;9.77;2.75;;;;;;;14.91;100.00;99151.69;4995592;28;20146;-48
2023/10/19 09:04:42;;;;;;;12.40;3.30;;;;;;;15.01;100.00;99147.91;4999110;28;20030;-47
2023/10/19 09:07:10;;;;;;;7.68;2.20;;;;;;;15.14;100.00;99146.19;4997589;28;20034;-48
2023/10/19 09:09:39;;;;;;;13.70;2.75;;;;;;;15.30;100.00;99142.44;4997308;28;20353;-47
2023/10/19 09:12:05;;;;;;;13.98;2.70;;;;;;;15.47;100.00;99137.69;4998101;28;20055;-48
2023/10/19 09:14:33;;;;;;;11.77;2.58;;;;;;;15.64;100.00;99134.75;5001429;28;20045;-47
2023/10/19 09:17:00;;;;;;;10.45;2.55;;;;;;;15.70;100.00;99132.13;5000270;28;20018;-45
2023/10/19 09:19:48;;;;;;;9.52;2.47;;;;;;;15.78;100.00;99125.81;4996475;28;20023;-46
2023/10/19 09:22:18;;;;;;;13.15;2.83;;;;;;;15.88;100.00;99120.13;5016914;28;20137;-45
2023/10/19 09:24:53;;;;;;;11.48;2.88;;;;;;;15.96;100.00;99120.00;4999255;28;20030;-45
2023/10/19 09:27:19;;;;;;;8.68;2.30;;;;;;;16.02;100.00;99119.22;4997931;28;20053;-45
2023/10/19 09:29:45;;;;;;;12.95;2.20;;;;;;;16.18;100.00;99123.44;4997915;28;20041;-46
2023/10/19 09:32:13;;;;;;;15.93;3.05;;;;;;;16.32;100.00;99124.38;5012081;28;20018;-46
2023/10/19 09:34:40;;;;;;;13.73;2.72;;;;;;;16.44;100.00;99124.63;4996425;28;20037;-45
2023/10/19 09:37:06;;;;;;;10.57;2.60;;;;;;;16.56;100.00;99127.59;5007873;28;20113;-46
2023/10/19 09:39:34;;;;;;;12.65;2.38;;;;;;;16.66;100.00;99133.41;4996543;28;20117;-45
2023/10/19 09:42:10;;;;;;;12.98;3.10;;;;;;;16.82;100.00;99133.06;4997711;28;20022;-46
2023/10/19 09:44:47;;;;;;;11.65;2.60;;;;;;;16.89;100.00;99132.28;4997066;28;20045;-45
2023/10/19 09:47:19;;;;;;;9.25;2.30;;;;;;;17.02;100.00;99111.69;5011504;28;20046;-47
2023/10/19 09:49:44;;;;;;;9.90;2.15;;;;;;;17.07;100.00;99118.31;4998657;28;20109;-46
2023/10/19 09:52:13;;;;;;;11.93;2.40;;;;;;;17.09;100.00;99119.75;4992684;28;20137;-48
2023/10/19 09:54:39;;;;;;;;;;;;;;;17.16;100.00;99115.22;5006249;28;20113;-46
2023/10/19 09:57:16;;;;;;;11.03;2.80;;;;;;;17.13;100.00;99112.13;5007427;28;20005;-47
2023/10/19 09:59:44;;;;;;;8.68;2.60;;;;;;;17.11;100.00;99106.97;5001689;28;20030;-49
2023/10/19 10:02:18;;;;;;;9.43;1.90;;;;;;;17.12;100.00;99105.97;5000548;28;20033;-46
2023/10/19 10:04:48;;;;;;;12.68;2.40;;;;;;;17.17;100.00;99106.16;5001145;28;20052;-47
2023/10/19 10:07:15;;;;;;;10.00;2.28;;;;;;;17.23;100.00;99104.50;4992217;28;20031;-45
2023/10/19 10:09:44;;;;;;;8.30;2.30;;;;;;;17.27;100.00;99107.63;4994567;28;20473;-49
2023/10/19 10:12:24;;;;;;;7.35;2.25;;;;;;;17.35;100.00;99108.28;4994841;28;20073;-46
2023/10/19 10:15:02;;;;;;;8.75;2.58;;;;;;;17.38;100.00;99112.38;4993500;28;20453;-46
2023/10/19 10:17:28;;;;;;;12.65;2.60;;;;;;;17.43;100.00;99104.53;4997739;28;20030;-46
2023/10/19 10:19:56;;;;;;;10.05;2.33;;;;;;;17.45;100.00;99109.72;4997454;28;20472;-46
2023/10/19 10:22:22;;;;;;;11.90;2.53;;;;;;;17.49;100.00;99111.78;4997634;28;20080;-46
2023/10/19 10:24:54;;;;;;;9.82;2.20;;;;;;;17.53;100.00;99118.38;4993066;28;20034;-46
2023/10/19 10:27:20;;;;;;;11.95;2.53;;;;;;;17.55;100.00;99128.91;4996657;28;20030;-46
2023/10/19 10:29:56;;;;;;;7.93;2.22;;;;;;;17.62;100.00;99124.41;4997187;28;20030;-49
2023/10/19 10:32:42;;;;;;;7.38;2.33;;;;;;;17.70;100.00;99120.66;4999984;28;20422;-46
2023/10/19 10:35:08;;;;;;;9.60;2.50;;;;;;;17.72;100.00;99118.63;5000160;28;20038;-47
2023/10/19 10:37:37;;;;;;;9.07;2.03;;;;;;;17.74;100.00;99112.00;4996181;28;20480;-46
2023/10/19 10:40:05;;;;;;;8.05;2.75;;;;;;;17.78;100.00;99111.59;4997874;28;20061;-46
2023/10/19 10:42:31;;;;;;;10.23;2.88;;;;;;;17.79;100.00;99111.38;5000585;28;20035;-46
2023/10/19 10:44:56;;;;;;;8.38;2.13;;;;;;;17.81;100.00;99116.56;4999166;28;20510;-49
2023/10/19 10:47:24;;;;;;;9.25;2.42;;;;;;;17.85;100.00;99118.63;4996824;28;20058;-47
2023/10/19 10:49:55;;;;;;;7.80;2.38;;;;;;;17.91;100.00;99125.84;4998947;28;20503;-47
2023/10/19 10:52:32;;;;;;;14.43;2.45;;;;;;;17.94;100.00;99122.75;4996130;28;20377;-47
2023/10/19 10:54:58;;;;;;;9.40;2.70;;;;;;;17.93;100.00;99129.16;5000330;28;20402;-47
2023/10/19 10:57:29;;;;;;;7.97;2.35;;;;;;;17.93;100.00;99123.78;5000055;28;20479;-47
2023/10/19 11:00:07;;;;;;;11.13;2.60;;;;;;;17.90;100.00;99126.91;4999289;28;20353;-46
2023/10/19 11:02:35;;;;;;;12.98;2.80;;;;;;;17.87;100.00;99121.09;4997085;28;20034;-48
2023/10/19 11:05:00;;;;;;;11.32;2.10;;;;;;;17.83;100.00;99103.72;5000187;28;20069;-49
2023/10/19 11:07:25;;;;;;;10.05;2.33;;;;;;;17.85;100.00;99101.66;4991331;28;20461;-46
2023/10/19 11:09:51;;;;;;;11.10;2.33;;;;;;;17.84;100.00;99105.41;4985873;28;20026;-46
2023/10/19 11:12:16;;;;;;;8.98;2.15;;;;;;;17.82;100.00;99100.22;5000106;28;20036;-46
2023/10/19 11:14:59;;;;;;;11.25;2.90;;;;;;;17.85;100.00;99094.44;4997601;28;20036;-47
2023/10/19 11:17:30;;;;;;;8.55;2.20;;;;;;;17.79;98.77;99095.28;4999898;28;20027;-48
2023/10/19 11:19:56;;;;;;;14.00;2.50;;;;;;;17.79;100.00;99083.72;5001493;28;20092;-46
2023/10/19 11:22:24;;;;;;;11.80;2.28;;;;;;;17.83;100.00;99083.06;5000905;28;20037;-50
2023/10/19 11:24:50;;;;;;;10.93;2.88;;;;;;;17.88;100.00;99077.94;4997510;28;20041;-46
2023/10/19 11:27:28;;;;;;;9.05;2.40;;;;;;;17.92;100.00;99076.50;4999328;28;20022;-47
2023/10/19 11:29:57;;;;;;;11.10;2.90;;;;;;;17.97;100.00;99083.09;5000844;28;20034;-46
2023/10/19 11:32:25;;;;;;;12.00;2.85;;;;;;;17.93;98.75;99078.13;4999689;28;20099;-48
2023/10/19 11:34:53;;;;;;;13.15;2.95;;;;;;;17.89;99.27;99074.22;4995388;28;20395;-47
2023/10/19 11:37:19;;;;;;;11.02;2.65;;;;;;;17.90;100.00;99070.50;5000646;28;20070;-47
2023/10/19 11:39:45;;;;;;;13.60;2.90;;;;;;;17.88;98.29;99061.81;5001268;28;20058;-50
2023/10/19 11:42:10;;;;;;;12.60;2.90;;;;;;;17.84;99.11;99065.94;4997504;28;20034;-46
2023/10/19 11:44:36;;;;;;;12.30;2.58;;;;;;;17.75;97.93;99057.28;4994992;28;20057;-46